Time;durP1;ratioP1;P1;durP2;ratioP2;P2;SDS_P1;SDS_P2;PMS_P1;PMS_P2;Temp;Humidity;BMP_temperature;BMP_pressure;BME280_temperature;BME280_humidity;BME280_pressure;Samples;Min_cycle;Max_cycle;Signal;HPM_P1;HPM_P2
2021/11/13 00:01:19;;;;;;;15.63;13.98;;;10.20;99.90;;;;;;4879412;29;20187;-74
2021/11/13 00:03:45;;;;;;;15.80;14.10;;;10.20;99.90;;;;;;4879983;29;20462;-74
2021/11/13 00:06:10;;;;;;;16.55;14.70;;;10.20;99.90;;;;;;4896528;29;20107;-74
2021/11/13 00:08:36;;;;;;;15.48;13.88;;;10.20;99.90;;;;;;4894689;29;20048;-74
2021/11/13 00:11:02;;;;;;;18.45;14.40;;;10.20;99.90;;;;;;4896265;29;20119;-74
2021/11/13 00:13:28;;;;;;;14.95;13.30;;;10.20;99.90;;;;;;4896244;29;20067;-75
2021/11/13 00:15:54;;;;;;;15.23;13.60;;;10.20;99.90;;;;;;4896015;29;20037;-74
2021/11/13 00:18:20;;;;;;;16.50;14.07;;;10.10;99.90;;;;;;4895737;29;20040;-74
2021/11/13 00:20:47;;;;;;;14.68;12.93;;;10.10;99.90;;;;;;4895110;29;20096;-76
2021/11/13 00:23:15;;;;;;;16.33;13.88;;;10.20;99.90;;;;;;4879669;29;20028;-75
2021/11/13 00:25:41;;;;;;;16.50;14.10;;;10.20;99.90;;;;;;4879258;29;20099;-78
2021/11/13 00:28:06;;;;;;;14.93;13.32;;;10.20;99.90;;;;;;4895507;29;20033;-75
2021/11/13 00:30:32;;;;;;;20.10;15.50;;;10.10;99.90;;;;;;4879419;29;20088;-76
2021/11/13 00:32:58;;;;;;;19.00;16.02;;;10.20;99.90;;;;;;4879516;29;20024;-77
2021/11/13 00:35:23;;;;;;;15.63;13.52;;;10.10;99.90;;;;;;4895174;29;20454;-77
2021/11/13 00:37:49;;;;;;;16.10;13.07;;;10.10;99.90;;;;;;4896279;29;20035;-77
2021/11/13 00:40:17;;;;;;;15.40;13.80;;;10.10;99.90;;;;;;4879544;29;20024;-77
2021/11/13 00:42:44;;;;;;;15.32;13.73;;;10.10;99.90;;;;;;4879075;29;20060;-76
2021/11/13 00:45:10;;;;;;;15.15;12.75;;;10.10;99.90;;;;;;4895897;29;20478;-78
2021/11/13 00:47:36;;;;;;;17.92;14.65;;;10.20;99.90;;;;;;4895709;29;20115;-81
2021/11/13 00:50:03;;;;;;;16.08;14.48;;;10.20;99.90;;;;;;4911408;29;20124;-84
2021/11/13 00:52:29;;;;;;;16.83;14.30;;;10.20;99.90;;;;;;4915246;29;20028;-77
2021/11/13 00:54:55;;;;;;;17.38;14.50;;;10.10;99.90;;;;;;4898289;29;20032;-76
2021/11/13 00:57:21;;;;;;;17.27;15.45;;;10.10;99.90;;;;;;4896067;29;20392;-77
2021/11/13 00:59:46;;;;;;;16.42;14.65;;;10.10;99.90;;;;;;4879001;29;20165;-77
2021/11/13 01:02:12;;;;;;;15.85;14.15;;;10.10;99.90;;;;;;4879546;29;20036;-77
2021/11/13 01:04:38;;;;;;;17.88;14.52;;;10.10;99.90;;;;;;4894354;29;20024;-76
2021/11/13 01:07:04;;;;;;;15.05;12.93;;;10.10;99.90;;;;;;4898924;29;20037;-77
2021/11/13 01:09:30;;;;;;;17.08;15.25;;;10.10;99.90;;;;;;4896377;29;20029;-78
2021/11/13 01:11:57;;;;;;;18.58;13.48;;;10.10;99.90;;;;;;4878594;29;20478;-76
2021/11/13 01:14:24;;;;;;;16.35;13.88;;;10.20;99.90;;;;;;4879571;29;20072;-76
2021/11/13 01:16:50;;;;;;;17.55;13.75;;;10.10;99.90;;;;;;4874741;29;20049;-76
2021/11/13 01:19:15;;;;;;;17.33;14.85;;;10.20;99.90;;;;;;4892998;29;20464;-77
2021/11/13 01:21:41;;;;;;;20.23;14.90;;;10.20;99.90;;;;;;4915091;29;20116;-78
2021/11/13 01:24:07;;;;;;;16.73;14.82;;;10.20;99.90;;;;;;4914174;29;20366;-76
2021/11/13 01:26:33;;;;;;;16.00;14.20;;;10.20;99.90;;;;;;4915427;29;20020;-76
2021/11/13 01:28:59;;;;;;;15.80;14.18;;;10.10;99.90;;;;;;4911635;29;20650;-75
2021/11/13 01:31:24;;;;;;;14.23;12.73;;;10.20;99.90;;;;;;4914139;29;20511;-76
2021/11/13 01:33:50;;;;;;;15.85;13.77;;;10.20;99.90;;;;;;4883071;29;20081;-75
2021/11/13 01:36:16;;;;;;;17.08;13.52;;;10.20;99.90;;;;;;4875898;29;20477;-79
2021/11/13 01:38:42;;;;;;;16.77;14.10;;;10.20;99.90;;;;;;4877347;29;20043;-76
2021/11/13 01:41:09;;;;;;;18.67;15.30;;;10.20;99.90;;;;;;4878505;29;20485;-77
2021/11/13 01:43:37;;;;;;;18.30;13.93;;;10.20;99.90;;;;;;4889046;29;20056;-77
2021/11/13 01:46:05;;;;;;;14.73;13.10;;;10.20;99.90;;;;;;4877644;29;20639;-77
2021/11/13 01:48:31;;;;;;;15.55;13.93;;;10.20;99.90;;;;;;4878462;29;20055;-75
2021/11/13 01:50:58;;;;;;;16.00;12.50;;;10.20;99.90;;;;;;4880430;29;20051;-76
2021/11/13 01:53:26;;;;;;;16.25;13.35;;;10.20;99.90;;;;;;4881441;29;20017;-76
2021/11/13 01:55:54;;;;;;;14.90;13.15;;;10.20;99.90;;;;;;4882482;29;20048;-76
2021/11/13 01:58:20;;;;;;;15.38;12.27;;;10.20;99.90;;;;;;4881276;29;20085;-76
2021/11/13 02:00:50;;;;;;;15.15;13.18;;;10.20;99.90;;;;;;4881451;29;20505;-76
2021/11/13 02:03:17;;;;;;;14.98;12.65;;;10.20;99.90;;;;;;4882101;29;20029;-76
2021/11/13 02:05:43;;;;;;;15.00;13.07;;;10.20;99.90;;;;;;4882284;29;20396;-77
2021/11/13 02:08:08;;;;;;;14.38;12.85;;;10.30;99.90;;;;;;4897946;29;20025;-75
2021/11/13 02:10:34;;;;;;;14.93;12.98;;;10.20;99.90;;;;;;4898060;29;20055;-77
2021/11/13 02:13:00;;;;;;;15.07;12.80;;;10.20;99.90;;;;;;4897290;29;20028;-76
2021/11/13 02:15:27;;;;;;;14.15;11.63;;;10.30;99.90;;;;;;4897714;29;20051;-77
2021/11/13 02:17:55;;;;;;;12.63;10.32;;;10.30;99.90;;;;;;4897203;29;20024;-76
2021/11/13 02:20:32;;;;;;;13.13;10.75;;;10.30;99.90;;;;;;4896929;29;20243;-76
2021/11/13 02:23:20;;;;;;;12.88;11.35;;;10.30;99.90;;;;;;4890973;29;20028;-76
2021/11/13 02:25:47;;;;;;;11.93;10.48;;;10.40;99.90;;;;;;4881528;29;20800;-77
2021/11/13 02:28:15;;;;;;;12.50;11.18;;;10.40;99.90;;;;;;4880838;29;20383;-78
2021/11/13 02:30:42;;;;;;;12.07;10.77;;;10.40;99.90;;;;;;4881515;29;20580;-77
2021/11/13 02:33:08;;;;;;;12.65;11.18;;;10.40;99.90;;;;;;4881574;29;20493;-78
2021/11/13 02:35:34;;;;;;;12.18;10.88;;;10.40;99.90;;;;;;4881831;29;20032;-78
2021/11/13 02:38:15;;;;;;;11.73;10.48;;;10.40;99.90;;;;;;4898269;29;20024;-76
2021/11/13 02:40:55;;;;;;;11.85;10.65;;;10.40;99.90;;;;;;4896012;29;20056;-76
2021/11/13 02:43:22;;;;;;;15.40;11.48;;;10.40;99.90;;;;;;4897004;29;20111;-77
2021/11/13 02:45:48;;;;;;;12.07;10.77;;;10.40;99.90;;;;;;4896952;29;20124;-76
2021/11/13 02:48:16;;;;;;;11.95;10.75;;;10.40;99.90;;;;;;4897144;29;20024;-76
2021/11/13 02:50:44;;;;;;;11.57;10.38;;;10.40;99.90;;;;;;4916034;29;20058;-76
2021/11/13 02:53:17;;;;;;;12.27;10.98;;;10.40;99.90;;;;;;4908132;29;20027;-76
2021/11/13 02:55:42;;;;;;;11.45;10.30;;;10.40;99.90;;;;;;4880776;29;20039;-76
2021/11/13 02:58:09;;;;;;;11.77;10.55;;;10.40;99.90;;;;;;4880911;29;20028;-76
2021/11/13 03:00:35;;;;;;;11.20;10.10;;;10.50;99.90;;;;;;4881494;29;20025;-77
2021/11/13 03:03:01;;;;;;;11.93;10.68;;;10.50;99.90;;;;;;4910226;29;20031;-77
2021/11/13 03:05:33;;;;;;;11.43;10.15;;;10.50;99.90;;;;;;4916891;29;20032;-80
2021/11/13 03:08:03;;;;;;;14.68;9.98;;;10.50;99.90;;;;;;4899315;29;20032;-76
2021/11/13 03:10:33;;;;;;;13.38;11.07;;;10.50;99.90;;;;;;4899300;29;20032;-78
2021/11/13 03:12:59;;;;;;;13.80;12.13;;;10.60;99.90;;;;;;4897868;29;20028;-79
2021/11/13 03:15:25;;;;;;;12.90;11.02;;;10.60;99.90;;;;;;4900041;29;20130;-77
2021/11/13 03:17:53;;;;;;;12.13;10.93;;;10.50;99.90;;;;;;4899004;29;20035;-77
2021/11/13 03:20:22;;;;;;;13.40;11.13;;;10.60;99.90;;;;;;4899455;29;20059;-77
2021/11/13 03:22:48;;;;;;;12.18;10.88;;;10.60;99.90;;;;;;4899428;29;20028;-77
2021/11/13 03:25:18;;;;;;;13.15;10.55;;;10.60;99.90;;;;;;4888679;29;20013;-77
2021/11/13 03:27:48;;;;;;;12.60;10.93;;;10.60;99.90;;;;;;4880653;29;20036;-76
2021/11/13 03:30:15;;;;;;;12.52;11.23;;;10.60;99.90;;;;;;4880333;29;20044;-77
2021/11/13 03:32:41;;;;;;;13.05;11.75;;;10.60;99.90;;;;;;4891714;29;20020;-76
2021/11/13 03:35:09;;;;;;;13.68;10.43;;;10.60;99.90;;;;;;4879990;29;20025;-76
2021/11/13 03:37:35;;;;;;;13.10;11.35;;;10.60;99.90;;;;;;4896839;29;20029;-76
2021/11/13 03:40:01;;;;;;;12.70;10.90;;;10.60;99.90;;;;;;4896914;29;20033;-77
2021/11/13 03:42:29;;;;;;;14.05;12.35;;;10.60;99.90;;;;;;4879337;29;20028;-78
2021/11/13 03:44:56;;;;;;;14.73;12.55;;;10.60;99.90;;;;;;4880113;29;20525;-78
2021/11/13 03:47:22;;;;;;;16.35;13.02;;;10.60;99.90;;;;;;4880425;29;20532;-78
2021/11/13 03:49:47;;;;;;;14.85;12.35;;;10.60;99.90;;;;;;4879479;29;20132;-76
2021/11/13 03:52:13;;;;;;;13.77;12.40;;;10.60;99.90;;;;;;4878425;29;20123;-77
2021/11/13 03:54:39;;;;;;;13.27;11.30;;;10.60;99.90;;;;;;4880391;29;20020;-77
2021/11/13 03:57:05;;;;;;;14.00;11.80;;;10.70;99.90;;;;;;4880059;29;20028;-76
2021/11/13 03:59:31;;;;;;;13.38;11.98;;;10.70;99.90;;;;;;4895878;29;20040;-77
2021/11/13 04:01:58;;;;;;;13.18;11.73;;;10.70;99.90;;;;;;4879254;29;20056;-78
2021/11/13 04:04:23;;;;;;;13.07;11.73;;;10.70;99.90;;;;;;4879509;29;20043;-76
2021/11/13 04:06:49;;;;;;;12.50;11.20;;;10.70;99.90;;;;;;4879329;29;20388;-77
2021/11/13 04:09:15;;;;;;;13.23;11.30;;;10.70;99.90;;;;;;4876014;29;20488;-77
2021/11/13 04:11:40;;;;;;;14.68;12.63;;;10.70;99.90;;;;;;4879998;29;20285;-79
2021/11/13 04:14:06;;;;;;;15.02;12.27;;;10.70;99.90;;;;;;4877282;29;20032;-78
2021/11/13 04:16:32;;;;;;;13.35;11.70;;;10.70;99.90;;;;;;4896788;29;20052;-78
2021/11/13 04:18:57;;;;;;;12.07;10.80;;;10.70;99.90;;;;;;4878177;29;20120;-78
2021/11/13 04:21:23;;;;;;;12.85;11.52;;;10.70;99.90;;;;;;4879312;29;20047;-76
2021/11/13 04:23:48;;;;;;;13.13;11.38;;;10.70;99.90;;;;;;4879767;29;20474;-76
2021/11/13 04:26:14;;;;;;;12.50;11.20;;;10.80;99.90;;;;;;4895746;29;20059;-77
2021/11/13 04:28:40;;;;;;;11.60;10.40;;;10.80;99.90;;;;;;4879061;29;20087;-78
2021/11/13 04:31:06;;;;;;;12.93;11.27;;;10.80;99.90;;;;;;4879364;29;20049;-77
2021/11/13 04:33:34;;;;;;;13.18;11.38;;;10.80;99.90;;;;;;4879875;29;20032;-77
2021/11/13 04:38:27;;;;;;;11.10;10.00;;;10.80;99.90;;;;;;4895767;29;20040;-81
2021/11/13 04:40:53;;;;;;;12.60;10.68;;;10.90;99.90;;;;;;4895015;29;20168;-78
2021/11/13 04:43:19;;;;;;;11.02;9.93;;;10.90;99.90;;;;;;4879648;29;20128;-76
2021/11/13 04:45:44;;;;;;;11.13;9.93;;;10.90;99.90;;;;;;4879296;29;20080;-75
2021/11/13 04:48:10;;;;;;;12.75;10.07;;;10.90;99.90;;;;;;4879112;29;20381;-76
2021/11/13 04:50:36;;;;;;;12.63;10.30;;;10.90;99.90;;;;;;4912640;29;20512;-76
2021/11/13 04:53:05;;;;;;;12.48;11.18;;;10.90;99.90;;;;;;4897737;29;20031;-77
2021/11/13 04:55:32;;;;;;;11.07;9.98;;;10.90;99.90;;;;;;4897982;29;20028;-75
2021/11/13 04:57:58;;;;;;;10.57;9.48;;;10.90;99.90;;;;;;4897888;29;20237;-77
2021/11/13 05:00:27;;;;;;;11.35;9.90;;;10.90;99.90;;;;;;4896204;29;20483;-76
2021/11/13 05:02:54;;;;;;;12.27;9.88;;;10.90;99.90;;;;;;4897604;29;20031;-76
2021/11/13 05:05:20;;;;;;;10.90;9.88;;;11.00;99.90;;;;;;4897948;29;20032;-76
2021/11/13 05:07:46;;;;;;;10.93;9.85;;;11.00;99.90;;;;;;4898177;29;20024;-76
2021/11/13 05:10:13;;;;;;;11.68;10.48;;;11.00;99.90;;;;;;4912543;29;20511;-76
2021/11/13 05:12:39;;;;;;;12.30;10.88;;;11.00;99.90;;;;;;4898171;29;20062;-76
2021/11/13 05:15:05;;;;;;;12.00;9.35;;;10.90;99.90;;;;;;4897986;29;20032;-77
2021/11/13 05:17:31;;;;;;;10.13;9.10;;;11.00;99.90;;;;;;4914424;29;20060;-80
2021/11/13 05:19:57;;;;;;;10.15;8.27;;;11.00;99.90;;;;;;4895157;29;20455;-77
2021/11/13 05:22:23;;;;;;;10.90;8.10;;;11.00;99.90;;;;;;4898062;29;20019;-77
2021/11/13 05:24:49;;;;;;;9.93;8.75;;;11.00;99.90;;;;;;4897447;29;20020;-77
2021/11/13 05:27:15;;;;;;;9.93;8.65;;;11.00;99.90;;;;;;4918406;29;20028;-78
2021/11/13 05:29:41;;;;;;;8.63;7.72;;;11.00;99.90;;;;;;4891615;29;20035;-78
2021/11/13 05:32:07;;;;;;;9.27;8.35;;;11.10;99.90;;;;;;4882043;29;20127;-77
2021/11/13 05:34:33;;;;;;;9.23;8.30;;;11.10;99.90;;;;;;4899889;29;20393;-79
2021/11/13 05:36:58;;;;;;;9.75;8.68;;;11.00;99.90;;;;;;4881690;29;20033;-79
2021/11/13 05:39:24;;;;;;;9.02;8.10;;;11.00;99.90;;;;;;4882861;29;20025;-79
2021/11/13 05:41:50;;;;;;;8.57;7.78;;;11.10;99.90;;;;;;4882522;29;20545;-78
2021/11/13 05:44:16;;;;;;;7.45;6.72;;;11.00;99.90;;;;;;4881997;29;20025;-83
2021/11/13 05:46:41;;;;;;;7.82;7.05;;;11.00;99.90;;;;;;4882528;29;20036;-82
2021/11/13 05:49:10;;;;;;;7.88;7.07;;;11.10;99.90;;;;;;4888612;29;20074;-85
2021/11/13 05:51:36;;;;;;;7.28;6.63;;;11.10;99.90;;;;;;4900815;29;20055;-80
2021/11/13 05:54:02;;;;;;;10.20;8.45;;;11.10;99.90;;;;;;4917699;29;20020;-78
2021/11/13 05:56:28;;;;;;;8.75;7.88;;;11.10;99.90;;;;;;4901314;29;20032;-77
2021/11/13 05:58:53;;;;;;;10.07;9.10;;;11.10;99.90;;;;;;4900683;29;20023;-82
2021/11/13 06:01:20;;;;;;;8.27;7.47;;;11.10;99.90;;;;;;4901279;29;20076;-79
2021/11/13 06:03:45;;;;;;;8.40;7.45;;;11.10;99.90;;;;;;4901108;29;20503;-79
2021/11/13 06:06:11;;;;;;;7.72;7.03;;;11.10;99.90;;;;;;4900374;29;20059;-86
2021/11/13 06:08:36;;;;;;;7.95;7.15;;;11.10;99.90;;;;;;4900725;29;20020;-85
2021/11/13 06:11:02;;;;;;;7.35;6.50;;;11.10;99.90;;;;;;4901006;29;20489;-87
2021/11/13 06:13:27;;;;;;;7.38;6.68;;;11.10;99.90;;;;;;4901494;29;20049;-85
2021/11/13 06:15:53;;;;;;;7.45;6.75;;;11.10;99.90;;;;;;4901909;29;20020;-86
2021/11/13 06:18:19;;;;;;;7.32;6.63;;;11.10;99.90;;;;;;4901090;29;20623;-83
2021/11/13 06:20:44;;;;;;;6.50;5.90;;;11.10;99.90;;;;;;4917200;29;20036;-81
2021/11/13 06:23:11;;;;;;;6.28;5.65;;;11.10;99.90;;;;;;4918041;29;20529;-78
2021/11/13 06:25:37;;;;;;;6.65;6.05;;;11.10;99.90;;;;;;4886357;29;20547;-79
2021/11/13 06:28:02;;;;;;;6.70;6.00;;;11.10;99.90;;;;;;4899528;29;20024;-80
2021/11/13 06:30:28;;;;;;;6.95;6.35;;;11.10;99.90;;;;;;4900823;29;20039;-81
2021/11/13 06:32:55;;;;;;;6.60;6.00;;;11.10;99.90;;;;;;4916833;29;20083;-78
2021/11/13 06:35:20;;;;;;;6.78;5.95;;;11.10;99.90;;;;;;4916647;29;20137;-79
2021/11/13 06:37:46;;;;;;;6.43;5.82;;;11.10;99.90;;;;;;4894481;29;20103;-77
2021/11/13 06:40:14;;;;;;;8.38;6.13;;;11.10;99.90;;;;;;4890242;29;20032;-78
2021/11/13 06:42:41;;;;;;;6.68;6.03;;;11.10;99.90;;;;;;4899852;29;20024;-79
2021/11/13 06:45:08;;;;;;;6.97;6.28;;;11.10;99.90;;;;;;4898481;29;20039;-81
2021/11/13 06:47:34;;;;;;;7.43;6.72;;;11.20;99.90;;;;;;4904754;29;20555;-82
2021/11/13 06:50:00;;;;;;;8.07;7.18;;;11.10;99.90;;;;;;4902443;29;20402;-79
2021/11/13 06:52:25;;;;;;;6.95;6.25;;;11.10;99.90;;;;;;4897377;29;20037;-78
2021/11/13 06:54:51;;;;;;;6.90;6.25;;;11.10;99.90;;;;;;4880413;29;20463;-78
2021/11/13 06:57:16;;;;;;;6.72;6.13;;;11.10;99.90;;;;;;4879685;29;20035;-79
2021/11/13 06:59:42;;;;;;;7.70;7.00;;;11.10;99.90;;;;;;4880834;29;20174;-83
2021/11/13 07:02:08;;;;;;;6.85;6.25;;;11.10;99.90;;;;;;4879975;29;20031;-78
2021/11/13 07:04:34;;;;;;;7.60;6.38;;;11.10;99.90;;;;;;4880313;29;20025;-77
2021/11/13 07:07:00;;;;;;;6.28;5.68;;;11.10;99.90;;;;;;4885754;29;20080;-78
2021/11/13 07:09:25;;;;;;;6.68;6.07;;;11.10;99.90;;;;;;4896820;29;20076;-78
2021/11/13 07:11:51;;;;;;;6.57;5.55;;;11.10;99.90;;;;;;4880668;29;20032;-79
2021/11/13 07:14:17;;;;;;;6.22;5.63;;;11.10;99.90;;;;;;4880265;29;20076;-79
2021/11/13 07:16:43;;;;;;;6.10;5.60;;;11.10;99.90;;;;;;4879309;29;20041;-78
2021/11/13 07:19:09;;;;;;;6.15;5.65;;;11.10;99.90;;;;;;4896961;29;20082;-77
2021/11/13 07:21:37;;;;;;;6.68;6.07;;;11.10;99.90;;;;;;4892404;29;20059;-78
2021/11/13 07:24:03;;;;;;;6.25;5.65;;;11.10;99.90;;;;;;4878451;29;20549;-79
2021/11/13 07:26:28;;;;;;;6.00;5.50;;;11.10;99.90;;;;;;4880456;29;20115;-78
2021/11/13 07:29:01;;;;;;;6.60;5.90;;;11.10;99.90;;;;;;4880027;29;20032;-78
2021/11/13 07:31:27;;;;;;;6.20;5.60;;;11.10;99.90;;;;;;4879994;29;20032;-77
2021/11/13 07:33:54;;;;;;;5.60;5.10;;;11.20;99.90;;;;;;4890445;29;20035;-78
2021/11/13 07:36:20;;;;;;;6.47;5.80;;;11.20;99.90;;;;;;4880402;29;20059;-81
2021/11/13 07:38:46;;;;;;;5.40;4.90;;;11.20;99.90;;;;;;4864254;29;20032;-80
2021/11/13 07:41:12;;;;;;;6.10;5.60;;;11.20;99.90;;;;;;4896607;29;20355;-81
2021/11/13 07:43:39;;;;;;;5.93;5.43;;;11.30;99.90;;;;;;4895085;29;20046;-77
2021/11/13 07:46:05;;;;;;;5.43;4.97;;;11.30;99.90;;;;;;4880301;29;20044;-78
2021/11/13 07:48:31;;;;;;;7.90;5.32;;;11.30;99.90;;;;;;4895373;29;20130;-78
2021/11/13 07:50:57;;;;;;;5.53;4.90;;;11.30;99.90;;;;;;4879105;29;20096;-78
2021/11/13 07:53:23;;;;;;;5.90;5.32;;;11.40;99.90;;;;;;4883453;29;20036;-77
2021/11/13 07:55:49;;;;;;;6.05;5.45;;;11.40;99.90;;;;;;4895350;29;20480;-85
2021/11/13 07:58:16;;;;;;;6.50;5.90;;;11.50;99.90;;;;;;4880420;29;20056;-77
2021/11/13 08:00:45;;;;;;;5.72;5.22;;;11.50;99.90;;;;;;4880438;29;20119;-78
2021/11/13 08:03:11;;;;;;;6.18;5.22;;;11.60;99.90;;;;;;4878793;29;20080;-81
2021/11/13 08:05:36;;;;;;;6.07;5.47;;;11.60;99.90;;;;;;4878470;29;20036;-77
2021/11/13 08:08:02;;;;;;;6.10;5.60;;;11.60;99.90;;;;;;4878522;29;20100;-79
2021/11/13 08:10:28;;;;;;;6.13;5.53;;;11.70;99.90;;;;;;4879848;29;20040;-80
2021/11/13 08:12:54;;;;;;;6.55;5.57;;;11.70;99.90;;;;;;4879287;29;20028;-83
2021/11/13 08:15:20;;;;;;;6.88;5.70;;;11.70;99.90;;;;;;4895550;29;20032;-78
2021/11/13 08:17:46;;;;;;;7.22;6.53;;;11.70;99.90;;;;;;4894574;29;20036;-76
2021/11/13 08:20:13;;;;;;;7.07;6.47;;;11.70;99.90;;;;;;4879183;29;20088;-78
2021/11/13 08:22:41;;;;;;;6.85;6.15;;;11.80;99.90;;;;;;4879951;29;20035;-77
2021/11/13 08:25:08;;;;;;;6.80;6.20;;;11.80;99.90;;;;;;4879285;29;20040;-75
2021/11/13 08:27:35;;;;;;;6.85;6.10;;;11.80;99.90;;;;;;4895378;29;20503;-78
2021/11/13 08:30:02;;;;;;;6.85;6.25;;;11.90;99.90;;;;;;4879233;29;20028;-75
2021/11/13 08:32:28;;;;;;;6.57;5.97;;;11.90;99.90;;;;;;4879570;29;20036;-78
2021/11/13 08:34:54;;;;;;;7.43;6.82;;;11.90;99.90;;;;;;4895676;29;20031;-79
2021/11/13 08:37:19;;;;;;;7.38;6.68;;;11.90;99.90;;;;;;4885657;29;20127;-78
2021/11/13 08:39:45;;;;;;;7.75;7.05;;;11.90;99.90;;;;;;4879236;29;20529;-77
2021/11/13 08:42:14;;;;;;;7.65;6.95;;;11.90;99.90;;;;;;4879874;29;20709;-76
2021/11/13 08:44:43;;;;;;;7.85;7.05;;;12.00;99.90;;;;;;4879833;29;20031;-77
2021/11/13 08:47:10;;;;;;;8.18;7.05;;;11.90;99.90;;;;;;4877184;29;20037;-76
2021/11/13 08:49:41;;;;;;;7.80;7.00;;;12.00;99.90;;;;;;4878613;29;20056;-76
2021/11/13 08:52:07;;;;;;;7.50;6.80;;;12.00;99.90;;;;;;4879260;29;20036;-79
2021/11/13 08:54:33;;;;;;;6.82;6.28;;;12.00;99.90;;;;;;4895604;29;20032;-79
2021/11/13 08:56:59;;;;;;;8.88;7.97;;;12.00;99.90;;;;;;4878972;29;20017;-81
2021/11/13 08:59:25;;;;;;;8.82;8.02;;;12.00;99.90;;;;;;4880272;29;20061;-76
2021/11/13 09:01:51;;;;;;;10.02;9.07;;;12.00;99.90;;;;;;4882398;29;20497;-75
2021/11/13 09:04:17;;;;;;;9.10;8.10;;;12.00;99.90;;;;;;4899230;29;20075;-76
2021/11/13 09:06:43;;;;;;;8.02;7.32;;;12.00;99.90;;;;;;4900191;29;20093;-75
2021/11/13 09:09:09;;;;;;;8.68;7.88;;;12.00;99.90;;;;;;4881324;29;20024;-77
2021/11/13 09:11:39;;;;;;;9.38;8.38;;;12.10;99.90;;;;;;4898868;29;20123;-80
2021/11/13 09:14:08;;;;;;;9.88;8.95;;;12.10;99.90;;;;;;4900235;29;20028;-80
2021/11/13 09:16:34;;;;;;;10.13;9.23;;;12.10;99.90;;;;;;4882763;29;20438;-84
2021/11/13 09:19:00;;;;;;;9.40;8.57;;;12.20;99.90;;;;;;4882274;29;20029;-76
2021/11/13 09:21:28;;;;;;;11.55;10.18;;;12.20;99.90;;;;;;4883280;29;20033;-78
2021/11/13 09:23:54;;;;;;;9.65;8.75;;;12.20;99.90;;;;;;4886089;29;20048;-82
2021/11/13 09:26:21;;;;;;;10.13;9.23;;;12.20;99.90;;;;;;4905887;29;20512;-82
2021/11/13 09:28:48;;;;;;;9.48;8.68;;;12.20;99.90;;;;;;4883057;29;20075;-79
2021/11/13 09:31:13;;;;;;;9.82;8.93;;;12.30;99.90;;;;;;4882030;29;20032;-77
2021/11/13 09:33:39;;;;;;;11.82;10.63;;;12.30;99.90;;;;;;4899619;29;20036;-77
2021/11/13 09:36:05;;;;;;;10.73;9.63;;;12.40;99.90;;;;;;4898903;29;20033;-78
2021/11/13 09:38:34;;;;;;;11.70;10.57;;;12.30;99.90;;;;;;4882910;29;20072;-79
2021/11/13 09:41:02;;;;;;;11.18;10.07;;;12.40;99.90;;;;;;4882759;29;20032;-80
2021/11/13 09:43:29;;;;;;;9.95;8.18;;;12.40;99.90;;;;;;4883097;29;20053;-76
2021/11/13 09:45:58;;;;;;;10.63;9.63;;;12.40;99.90;;;;;;4885835;29;20048;-77
2021/11/13 09:48:24;;;;;;;10.57;9.48;;;12.50;99.90;;;;;;4899533;29;20033;-76
2021/11/13 09:50:50;;;;;;;11.10;10.10;;;12.50;99.90;;;;;;4904400;29;20404;-79
2021/11/13 09:53:19;;;;;;;11.45;10.27;;;12.50;99.90;;;;;;4881856;29;20036;-78
2021/11/13 09:55:46;;;;;;;12.82;11.52;;;12.60;99.90;;;;;;4882286;29;20020;-79
2021/11/13 09:58:12;;;;;;;11.77;10.52;;;12.60;99.90;;;;;;4888527;29;20045;-81
2021/11/13 10:00:41;;;;;;;12.00;10.82;;;12.70;99.90;;;;;;4892972;29;20032;-81
2021/11/13 10:03:07;;;;;;;10.55;9.55;;;12.70;99.90;;;;;;4881934;29;20107;-77
2021/11/13 10:05:33;;;;;;;10.85;9.75;;;12.70;99.90;;;;;;4880403;29;20020;-74
2021/11/13 10:07:59;;;;;;;9.88;8.95;;;12.70;99.90;;;;;;4898760;29;20104;-80
2021/11/13 10:10:34;;;;;;;10.82;9.82;;;12.70;99.90;;;;;;4882181;29;20124;-73
2021/11/13 10:13:02;;;;;;;10.43;9.43;;;12.70;99.90;;;;;;4880697;29;20020;-75
2021/11/13 10:15:34;;;;;;;9.20;8.40;;;12.70;99.90;;;;;;4881669;29;20477;-73
2021/11/13 10:18:30;;;;;;;8.77;7.97;;;12.70;99.90;;;;;;4898281;29;20076;-72
2021/11/13 10:20:56;;;;;;;10.43;9.25;;;12.70;99.90;;;;;;4896496;29;20047;-72
2021/11/13 10:23:27;;;;;;;11.20;10.07;;;12.70;99.90;;;;;;4898354;29;20116;-73
2021/11/13 10:26:13;;;;;;;11.00;9.93;;;12.70;99.90;;;;;;4894818;29;20123;-75
2021/11/13 10:29:00;;;;;;;10.85;9.13;;;12.70;99.90;;;;;;4880858;29;20401;-75
2021/11/13 10:31:29;;;;;;;9.00;8.05;;;12.70;99.90;;;;;;4895998;29;20049;-73
2021/11/13 10:33:57;;;;;;;10.07;8.88;;;12.80;99.90;;;;;;4897650;29;20552;-75
2021/11/13 10:36:36;;;;;;;11.38;10.18;;;12.80;99.90;;;;;;4898178;29;20029;-78
2021/11/13 10:39:12;;;;;;;10.60;9.50;;;12.80;99.90;;;;;;4896473;29;20060;-76
2021/11/13 10:41:48;;;;;;;9.52;8.63;;;12.90;99.90;;;;;;4896481;29;20119;-76
2021/11/13 10:44:16;;;;;;;9.93;8.93;;;12.90;99.90;;;;;;4891513;29;20028;-75
2021/11/13 10:46:46;;;;;;;9.50;8.60;;;12.90;99.90;;;;;;4880066;29;20143;-75
2021/11/13 10:49:12;;;;;;;10.73;9.63;;;12.90;99.90;;;;;;4880888;29;20052;-72
2021/11/13 10:51:38;;;;;;;11.82;9.82;;;13.00;99.90;;;;;;4897339;29;20036;-72
2021/11/13 10:54:14;;;;;;;11.43;10.32;;;12.90;99.90;;;;;;4896146;29;20043;-71
2021/11/13 10:56:54;;;;;;;12.13;10.65;;;12.90;99.90;;;;;;4898050;29;20024;-77
2021/11/13 10:59:26;;;;;;;15.73;10.63;;;12.90;99.90;;;;;;4896956;29;20036;-76
2021/11/13 11:01:52;;;;;;;11.00;10.00;;;12.80;99.90;;;;;;4896923;29;20033;-89
2021/11/13 11:04:20;;;;;;;12.13;10.02;;;12.80;99.90;;;;;;4879706;29;20032;-78
2021/11/13 11:06:49;;;;;;;10.85;9.75;;;12.90;99.90;;;;;;4896399;29;20028;-79
2021/11/13 11:09:25;;;;;;;9.70;8.70;;;12.90;99.90;;;;;;4878557;29;20053;-76
2021/11/13 11:11:57;;;;;;;10.07;9.07;;;13.00;99.90;;;;;;4887597;29;20047;-75
2021/11/13 11:14:28;;;;;;;12.10;10.85;;;13.10;99.90;;;;;;4879202;29;20025;-72
2021/11/13 11:17:06;;;;;;;10.57;9.48;;;13.20;99.90;;;;;;4896727;29;20033;-72
2021/11/13 11:19:34;;;;;;;9.73;8.73;;;13.20;99.90;;;;;;4897575;29;20390;-75
2021/11/13 11:22:04;;;;;;;9.27;8.48;;;13.30;99.90;;;;;;4872873;29;20032;-71
2021/11/13 11:24:34;;;;;;;11.57;10.38;;;13.40;99.90;;;;;;4895548;29;20116;-72
2021/11/13 11:27:04;;;;;;;10.40;9.38;;;13.50;99.90;;;;;;4895890;29;20043;-72
2021/11/13 11:29:33;;;;;;;9.77;8.88;;;13.50;99.90;;;;;;4895170;29;20060;-78
2021/11/13 11:32:02;;;;;;;11.20;9.30;;;13.50;99.90;;;;;;4884062;29;20084;-73
2021/11/13 11:34:38;;;;;;;10.45;9.45;;;13.50;99.90;;;;;;4887149;29;20021;-79
2021/11/13 11:37:19;;;;;;;10.40;9.30;;;13.40;99.90;;;;;;4867430;29;20065;-74
2021/11/13 11:39:48;;;;;;;10.30;9.27;;;13.40;99.90;;;;;;4880160;29;20374;-75
2021/11/13 11:42:14;;;;;;;9.93;8.82;;;13.30;99.90;;;;;;4891056;29;20090;-74
2021/11/13 11:44:41;;;;;;;9.30;8.40;;;13.20;99.90;;;;;;4896157;29;20025;-77
2021/11/13 11:47:12;;;;;;;8.40;7.70;;;13.20;99.90;;;;;;4896254;29;20032;-75
2021/11/13 11:49:42;;;;;;;8.27;7.47;;;13.20;99.90;;;;;;4872576;29;20108;-75
2021/11/13 11:52:08;;;;;;;8.20;7.32;;;13.20;99.90;;;;;;4882547;29;20038;-75
2021/11/13 11:54:34;;;;;;;7.53;6.82;;;13.20;99.90;;;;;;4879368;29;20366;-74
2021/11/13 11:57:00;;;;;;;6.63;5.97;;;13.20;99.90;;;;;;4895299;29;20112;-74
2021/11/13 11:59:28;;;;;;;7.25;6.55;;;13.20;99.90;;;;;;4879482;29;20470;-78
2021/11/13 12:02:15;;;;;;;7.45;6.70;;;13.20;99.90;;;;;;4896998;29;20433;-78
2021/11/13 12:04:42;;;;;;;6.50;5.90;;;13.20;99.90;;;;;;4878511;29;20437;-76
2021/11/13 12:07:09;;;;;;;7.13;5.88;;;13.20;99.90;;;;;;4895441;29;20040;-74
2021/11/13 12:10:00;;;;;;;6.72;5.38;;;13.30;99.90;;;;;;4879632;29;20072;-78
2021/11/13 12:12:26;;;;;;;5.72;5.22;;;13.30;99.90;;;;;;4878196;29;20041;-76
2021/11/13 12:14:52;;;;;;;7.50;6.65;;;13.30;99.90;;;;;;4893236;29;20025;-80
2021/11/13 12:17:28;;;;;;;7.10;6.13;;;13.30;99.90;;;;;;4874468;29;20029;-80
2021/11/13 12:20:11;;;;;;;6.40;5.90;;;13.30;99.90;;;;;;4884835;29;20036;-78
2021/11/13 12:22:42;;;;;;;6.53;6.03;;;13.30;99.90;;;;;;4895289;29;20381;-77
2021/11/13 12:25:17;;;;;;;5.97;5.35;;;13.40;99.90;;;;;;4894469;29;20025;-77
2021/11/13 12:28:04;;;;;;;7.68;6.47;;;13.60;99.90;;;;;;4896528;29;20107;-78
2021/11/13 12:30:55;;;;;;;6.60;6.00;;;13.60;99.90;;;;;;4895702;29;20418;-78
2021/11/13 12:33:27;;;;;;;6.93;6.22;;;13.70;99.90;;;;;;4879204;29;20096;-78
2021/11/13 12:35:55;;;;;;;;;;;13.70;99.90;;;;;;4880068;29;20093;-76
2021/11/13 12:38:30;;;;;;;7.53;6.82;;;13.80;99.90;;;;;;4879564;29;19923;-77
2021/11/13 12:41:15;;;;;;;7.25;6.55;;;13.80;99.90;;;;;;4879018;29;20033;-76
2021/11/13 12:43:50;;;;;;;7.78;6.97;;;13.80;99.90;;;;;;4879780;29;20040;-77